createdAt,value
2018-04-22T00:00:26.645Z,101849.87
2018-04-22T00:03:29.970Z,101855.88
2018-04-22T00:06:33.298Z,101858.55
2018-04-22T00:09:36.632Z,101859.23
2018-04-22T00:12:39.972Z,101854.13
2018-04-22T00:15:43.317Z,101850.86
2018-04-22T00:18:46.641Z,101854.95
2018-04-22T00:21:49.969Z,101852.44
2018-04-22T00:24:54.399Z,101851.94
2018-04-22T00:27:57.738Z,101851.33
2018-04-22T00:31:01.070Z,101847.16
2018-04-22T00:34:04.385Z,101841.75
2018-04-22T00:37:08.465Z,101833.77
2018-04-22T00:40:11.774Z,101829.68
2018-04-22T00:43:15.114Z,101823.23
2018-04-22T00:46:18.413Z,101827.47
2018-04-22T00:49:21.746Z,101823.80
2018-04-22T00:52:25.057Z,101817.10
2018-04-22T00:55:28.376Z,101813.36
2018-04-22T00:58:32.449Z,101812.73
2018-04-22T01:01:36.873Z,101812.69
2018-04-22T01:04:40.183Z,101808.07
2018-04-22T01:07:43.589Z,101801.74
2018-04-22T01:10:46.944Z,101807.87
2018-04-22T01:13:50.281Z,101811.39
2018-04-22T01:16:53.576Z,101812.00
2018-04-22T01:19:56.899Z,101810.22
2018-04-22T01:23:00.206Z,101811.50
2018-04-22T01:26:03.521Z,101808.61
2018-04-22T01:29:06.853Z,101805.29
2018-04-22T01:32:10.149Z,101799.52
2018-04-22T01:35:13.476Z,101790.92
2018-04-22T01:38:17.550Z,101789.94
2018-04-22T01:41:20.860Z,101788.77
2018-04-22T01:44:24.190Z,101787.27
2018-04-22T01:47:28.252Z,101784.77
2018-04-22T01:50:31.578Z,101777.26
2018-04-22T01:53:34.901Z,101775.97
2018-04-22T01:56:38.961Z,101779.16
2018-04-22T01:59:42.276Z,101778.61
2018-04-22T02:02:45.574Z,101776.65
2018-04-22T02:05:48.906Z,101769.27
2018-04-22T02:08:52.981Z,101767.97
2018-04-22T02:11:56.312Z,101768.70
2018-04-22T02:14:59.654Z,101762.04
2018-04-22T02:18:02.956Z,101758.34
2018-04-22T02:21:06.294Z,101755.96
2018-04-22T02:24:10.365Z,101754.99
2018-04-22T02:27:13.747Z,101749.33
2018-04-22T02:30:17.771Z,101744.84
2018-04-22T02:33:21.094Z,101744.89
2018-04-22T02:36:24.403Z,101749.42
2018-04-22T02:39:28.510Z,101744.79
2018-04-22T02:42:31.817Z,101744.38
2018-04-22T02:45:35.141Z,101744.41
2018-04-22T02:48:38.477Z,101747.12
2018-04-22T02:51:41.779Z,101747.83
2018-04-22T02:54:45.112Z,101740.56
2018-04-22T02:57:49.189Z,101735.45
2018-04-22T03:00:52.518Z,101735.52
2018-04-22T03:03:55.826Z,101731.22
2018-04-22T03:06:59.153Z,101723.75
2018-04-22T03:10:02.457Z,101727.59
2018-04-22T03:13:05.772Z,101740.90
2018-04-22T03:16:09.073Z,101733.87
2018-04-22T03:19:12.396Z,101726.13
2018-04-22T03:22:16.542Z,101734.38
2018-04-22T03:25:19.827Z,101735.05
2018-04-22T03:28:23.137Z,101729.22
2018-04-22T03:31:26.458Z,101733.23
2018-04-22T03:34:29.785Z,101730.75
2018-04-22T03:37:33.093Z,101732.52
2018-04-22T03:40:36.434Z,101732.05
2018-04-22T03:43:39.742Z,101727.08
2018-04-22T03:46:43.069Z,101724.38
2018-04-22T03:49:46.373Z,101734.39
2018-04-22T03:52:49.712Z,101723.33
2018-04-22T03:55:53.020Z,101721.52
2018-04-22T03:58:56.337Z,101716.41
2018-04-22T04:01:59.645Z,101716.34
2018-04-22T04:05:02.986Z,101712.94
2018-04-22T04:08:06.293Z,101712.97
2018-04-22T04:11:09.626Z,101709.66
2018-04-22T04:14:12.937Z,101702.41
2018-04-22T04:17:16.266Z,101700.39
2018-04-22T04:20:37.250Z,101709.99
2018-04-22T04:27:47.230Z,101705.30
2018-04-22T04:30:50.593Z,101695.78
2018-04-22T04:33:53.878Z,101694.54
2018-04-22T04:36:57.177Z,101694.92
2018-04-22T04:40:00.492Z,101695.39
2018-04-22T04:43:03.789Z,101684.29
2018-04-22T04:46:07.105Z,101681.66
2018-04-22T04:49:10.401Z,101680.13
2018-04-22T04:52:13.729Z,101679.88
2018-04-22T04:55:17.065Z,101681.33
2018-04-22T04:58:20.374Z,101680.16
2018-04-22T05:01:23.711Z,101681.66
2018-04-22T05:04:27.013Z,101675.21
2018-04-22T05:07:30.345Z,101679.27
2018-04-22T05:10:33.653Z,101684.91
2018-04-22T05:13:36.974Z,101686.33
2018-04-22T05:16:40.297Z,101688.49
2018-04-22T05:19:44.374Z,101683.22
2018-04-22T05:22:47.693Z,101677.98
2018-04-22T05:25:51.761Z,101675.42
2018-04-22T05:28:55.074Z,101677.69
2018-04-22T05:31:58.370Z,101672.73
2018-04-22T05:35:01.713Z,101678.31
2018-04-22T05:38:05.012Z,101677.78
2018-04-22T05:41:08.350Z,101674.26
2018-04-22T05:44:11.649Z,101672.73
2018-04-22T05:47:14.969Z,101676.12
2018-04-22T05:50:18.290Z,101674.34
2018-04-22T05:53:22.360Z,101677.43
2018-04-22T05:56:25.685Z,101670.36
2018-04-22T05:59:29.753Z,101672.12
2018-04-22T06:02:33.069Z,101681.05
2018-04-22T06:05:36.367Z,101684.34
2018-04-22T06:08:39.726Z,101685.27
2018-04-22T06:11:43.769Z,101682.20
2018-04-22T06:14:47.091Z,101674.27
2018-04-22T06:17:50.429Z,101681.09
2018-04-22T06:20:53.732Z,101671.97
2018-04-22T06:23:57.048Z,101674.97
2018-04-22T06:27:00.370Z,101678.63
2018-04-22T06:30:03.703Z,101672.16
2018-04-22T06:33:07.005Z,101670.56
2018-04-22T06:36:10.317Z,101666.58
2018-04-22T06:39:13.629Z,101666.84
2018-04-22T06:42:16.940Z,101661.05
2018-04-22T06:45:20.246Z,101651.70
2018-04-22T06:48:23.566Z,101664.37
2018-04-22T06:51:27.629Z,101662.89
2018-04-22T06:54:30.944Z,101659.05
2018-04-22T06:57:34.252Z,101658.73
2018-04-22T07:00:37.565Z,101664.52
2018-04-22T07:03:40.857Z,101661.36
2018-04-22T07:06:44.169Z,101669.17
2018-04-22T07:09:48.264Z,101672.08
2018-04-22T07:12:51.565Z,101668.40
2018-04-22T07:15:54.881Z,101660.56
2018-04-22T07:18:58.948Z,101652.20
2018-04-22T07:22:02.262Z,101644.84
2018-04-22T07:25:06.340Z,101643.25
2018-04-22T07:28:09.665Z,101636.11
2018-04-22T07:31:12.977Z,101630.95
2018-04-22T07:34:16.298Z,101626.69
2018-04-22T07:37:19.601Z,101622.95
2018-04-22T07:40:22.935Z,101622.57
2018-04-22T07:43:26.260Z,101615.03
2018-04-22T07:46:29.566Z,101613.39
2018-04-22T07:49:33.665Z,101615.68
2018-04-22T07:52:37.097Z,101603.03
2018-04-22T07:55:41.273Z,101604.48
2018-04-22T07:58:44.581Z,101607.41
2018-04-22T08:01:47.905Z,101606.63
2018-04-22T08:04:51.975Z,101603.66
2018-04-22T08:07:55.323Z,101597.40
2018-04-22T08:10:58.641Z,101590.62
2018-04-22T08:14:01.971Z,101584.32
2018-04-22T08:17:05.281Z,101586.17
2018-04-22T08:20:08.601Z,101579.63
2018-04-22T08:23:12.665Z,101573.88
2018-04-22T08:26:15.989Z,101573.84
2018-04-22T08:29:19.360Z,101570.19
2018-04-22T08:32:22.724Z,101575.15
2018-04-22T08:35:26.041Z,101571.22
2018-04-22T08:38:29.354Z,101568.69
2018-04-22T08:41:32.674Z,101561.41
2018-04-22T08:44:35.973Z,101560.92
2018-04-22T08:47:39.796Z,101557.56
2018-04-22T08:50:43.130Z,101547.81
2018-04-22T08:53:46.454Z,101546.83
2018-04-22T08:56:49.760Z,101547.80
2018-04-22T08:59:53.089Z,101544.22
2018-04-22T09:02:57.153Z,101546.55
2018-04-22T09:06:00.473Z,101539.58
2018-04-22T09:09:03.777Z,101538.20
2018-04-22T09:12:07.098Z,101540.00
2018-04-22T09:15:10.415Z,101537.77
2018-04-22T09:18:13.737Z,101531.44
2018-04-22T09:21:17.053Z,101524.47
2018-04-22T09:24:20.384Z,101520.52
2018-04-22T09:27:23.763Z,101523.09
2018-04-22T09:30:27.057Z,101525.46
2018-04-22T09:33:30.383Z,101519.62
2018-04-22T09:36:33.679Z,101515.41
2018-04-22T09:39:36.996Z,101504.22
2018-04-22T09:42:40.297Z,101496.21
2018-04-22T09:45:43.621Z,101493.12
2018-04-22T09:48:46.933Z,101483.34
2018-04-22T09:51:50.250Z,101477.23
2018-04-22T09:54:54.314Z,101467.41
2018-04-22T09:57:57.637Z,101455.27
2018-04-22T10:01:00.972Z,101446.33
2018-04-22T10:04:12.540Z,101447.44
2018-04-22T10:07:16.621Z,101448.00
2018-04-22T10:10:19.944Z,101451.37
2018-04-22T10:13:24.013Z,101450.41
2018-04-22T10:16:27.365Z,101454.34
2018-04-22T10:19:30.666Z,101462.81
2018-04-22T10:22:33.971Z,101464.73
2018-04-22T10:25:37.297Z,101459.80
2018-04-22T10:28:40.630Z,101441.56
2018-04-22T10:31:43.937Z,101433.25
2018-04-22T10:34:48.017Z,101436.17
2018-04-22T10:37:51.337Z,101437.32
2018-04-22T10:40:54.669Z,101422.73
2018-04-22T10:43:57.985Z,101412.47
2018-04-22T10:47:01.308Z,101423.34
2018-04-22T10:50:04.629Z,101412.32
2018-04-22T10:53:08.713Z,101403.82
2018-04-22T10:56:12.035Z,101408.89
2018-04-22T10:59:15.461Z,101405.29
2018-04-22T11:02:19.556Z,101405.86
2018-04-22T11:05:22.862Z,101397.30
2018-04-22T11:08:26.960Z,101394.38
2018-04-22T11:11:30.320Z,101401.58
2018-04-22T11:14:33.645Z,101389.55
2018-04-22T11:17:36.965Z,101390.45
2018-04-22T11:20:40.317Z,101383.06
2018-04-22T11:23:43.626Z,101377.00
2018-04-22T11:26:46.949Z,101382.27
2018-04-22T11:29:51.029Z,101375.44
2018-04-22T11:32:54.349Z,101365.92
2018-04-22T11:35:57.667Z,101361.84
2018-04-22T11:39:01.745Z,101360.09
2018-04-22T11:42:05.089Z,101355.19
2018-04-22T11:45:08.400Z,101351.33
2018-04-22T11:48:11.721Z,101349.27
2018-04-22T11:51:15.049Z,101353.49
2018-04-22T11:54:18.357Z,101346.24
2018-04-22T11:57:22.436Z,101342.59
2018-04-22T12:00:25.758Z,101348.66
2018-04-22T12:03:29.082Z,101336.39
2018-04-22T12:06:32.406Z,101341.11
2018-04-22T12:09:35.721Z,101337.94
2018-04-22T12:12:39.029Z,101328.87
2018-04-22T12:15:42.344Z,101329.67
2018-04-22T12:18:45.671Z,101325.00
2018-04-22T12:21:48.989Z,101318.92
2018-04-22T12:24:52.330Z,101310.55
2018-04-22T12:27:55.636Z,101311.47
2018-04-22T12:30:58.956Z,101308.70
2018-04-22T12:34:02.257Z,101305.38
2018-04-22T12:37:05.589Z,101301.39
2018-04-22T12:40:08.893Z,101296.22
2018-04-22T12:43:12.214Z,101296.10
2018-04-22T12:46:15.545Z,101291.28
2018-04-22T12:49:18.851Z,101282.50
2018-04-22T12:52:22.182Z,101284.18
2018-04-22T12:55:25.506Z,101283.11
2018-04-22T12:58:29.606Z,101268.27
2018-04-22T13:01:32.911Z,101246.36
2018-04-22T13:04:36.237Z,101235.19
2018-04-22T13:07:39.567Z,101231.22
2018-04-22T13:10:42.892Z,101215.95
2018-04-22T13:13:46.205Z,101202.91
2018-04-22T13:16:50.300Z,101205.39
2018-04-22T13:19:53.622Z,101197.67
2018-04-22T13:22:57.713Z,101192.84
2018-04-22T13:26:01.012Z,101186.83
2018-04-22T13:29:04.333Z,101188.89
2018-04-22T13:32:08.429Z,101177.04
2018-04-22T13:35:11.729Z,101178.83
2018-04-22T13:38:15.816Z,101170.52
2018-04-22T13:41:19.143Z,101166.59
2018-04-22T13:44:22.459Z,101164.23
2018-04-22T13:47:25.806Z,101149.15
2018-04-22T13:50:29.127Z,101151.13
2018-04-22T13:53:32.429Z,101143.03
2018-04-22T13:56:36.517Z,101145.34
2018-04-22T13:59:39.834Z,101144.83
2018-04-22T14:02:43.153Z,101138.08
2018-04-22T14:05:47.217Z,101127.23
2018-04-22T14:08:50.537Z,101123.64
2018-04-22T14:11:53.837Z,101122.93
2018-04-22T14:14:57.160Z,101122.00
2018-04-22T14:18:00.497Z,101117.20
2018-04-22T14:21:03.793Z,101107.69
2018-04-22T14:24:07.108Z,101108.66
2018-04-22T14:27:10.417Z,101108.73
2018-04-22T14:30:13.745Z,101099.36
2018-04-22T14:33:17.053Z,101091.61
2018-04-22T14:36:20.385Z,101092.26
2018-04-22T14:39:23.681Z,101084.44
2018-04-22T14:42:27.000Z,101082.82
2018-04-22T14:45:48.041Z,101075.05
2018-04-22T14:49:05.047Z,101069.55
2018-04-22T14:52:09.132Z,101064.70
2018-04-22T14:55:12.429Z,101067.19
2018-04-22T14:58:15.761Z,101069.05
2018-04-22T15:01:19.821Z,101064.08
2018-04-22T15:04:23.136Z,101060.05
2018-04-22T15:07:26.465Z,101057.86
2018-04-22T15:10:30.545Z,101050.99
2018-04-22T15:13:33.880Z,101051.80
2018-04-22T15:16:37.189Z,101049.75
2018-04-22T15:19:40.520Z,101042.56
2018-04-22T15:22:43.816Z,101042.27
2018-04-22T15:25:47.137Z,101048.44
2018-04-22T15:28:50.473Z,101039.34
2018-04-22T15:31:53.814Z,101034.53
2018-04-22T15:34:57.126Z,101035.09
2018-04-22T15:38:00.448Z,101035.13
2018-04-22T15:41:04.525Z,101022.73
2018-04-22T15:44:07.861Z,101023.56
2018-04-22T15:47:11.936Z,101022.72
2018-04-22T15:50:15.255Z,101013.34
2018-04-22T15:53:18.586Z,101006.89
2018-04-22T15:56:21.893Z,101003.42
2018-04-22T15:59:25.218Z,101001.78
2018-04-22T16:02:28.549Z,101008.65
2018-04-22T16:05:32.633Z,101019.48
2018-04-22T16:08:35.929Z,101019.14
2018-04-22T16:11:39.261Z,101012.16
2018-04-22T16:14:43.414Z,101006.98
2018-04-22T16:17:46.700Z,101004.51
2018-04-22T16:20:50.025Z,101006.24
2018-04-22T16:23:53.334Z,101010.45
2018-04-22T16:26:56.658Z,101006.28
2018-04-22T16:30:00.730Z,101007.16
2018-04-22T16:33:04.046Z,101004.59
2018-04-22T16:36:07.353Z,101007.59
2018-04-22T16:39:10.673Z,101003.05
2018-04-22T16:42:14.746Z,101001.42
2018-04-22T16:45:18.073Z,100992.69
2018-04-22T16:48:22.140Z,100980.80
2018-04-22T16:51:25.476Z,100969.91
2018-04-22T16:54:28.786Z,100972.77
2018-04-22T16:57:32.877Z,100968.91
2018-04-22T17:00:36.178Z,100962.78
2018-04-22T17:03:39.502Z,100943.09
2018-04-22T17:06:43.582Z,100935.65
2018-04-22T17:09:46.885Z,100931.09
2018-04-22T17:12:50.218Z,100930.78
2018-04-22T17:15:53.538Z,100931.88
2018-04-22T17:18:56.836Z,100936.01
2018-04-22T17:22:00.148Z,100931.78
2018-04-22T17:25:03.469Z,100931.68
2018-04-22T17:28:06.789Z,100921.60
2018-04-22T17:31:10.106Z,100927.03
2018-04-22T17:34:13.422Z,100925.13
2018-04-22T17:37:16.729Z,100931.64
2018-04-22T17:40:20.057Z,100923.77
2018-04-22T17:43:24.152Z,100927.47
2018-04-22T17:46:27.457Z,100923.28
2018-04-22T17:49:30.786Z,100920.03
2018-04-22T17:52:34.109Z,100926.48
2018-04-22T17:55:37.433Z,100917.16
2018-04-22T17:58:40.742Z,100911.80
2018-04-22T18:01:44.121Z,100910.33
2018-04-22T18:04:47.411Z,100906.12
2018-04-22T18:07:50.881Z,100903.03
2018-04-22T18:10:54.192Z,100897.98
2018-04-22T18:13:57.528Z,100899.98
2018-04-22T18:17:00.866Z,100893.75
2018-04-22T18:20:04.166Z,100896.63
2018-04-22T18:23:07.494Z,100893.09
2018-04-22T18:26:10.803Z,100880.91
2018-04-22T18:29:14.133Z,100878.64
2018-04-22T18:32:18.209Z,100874.11
2018-04-22T18:35:21.528Z,100872.97
2018-04-22T18:38:24.861Z,100874.13
2018-04-22T18:41:28.168Z,100865.06
2018-04-22T18:44:31.492Z,100857.04
2018-04-22T18:47:34.790Z,100856.94
2018-04-22T18:50:38.117Z,100853.94
2018-04-22T18:53:41.438Z,100853.56
2018-04-22T18:56:44.762Z,100853.53
2018-04-22T18:59:48.061Z,100856.82
2018-04-22T19:02:51.373Z,100853.87
2018-04-22T19:05:54.702Z,100854.40
2018-04-22T19:08:58.789Z,100845.88
2018-04-22T19:12:02.089Z,100852.12
2018-04-22T19:15:05.413Z,100846.33
2018-04-22T19:18:09.512Z,100846.27
2018-04-22T19:21:12.817Z,100848.73
2018-04-22T19:24:16.149Z,100839.67
2018-04-22T19:27:19.461Z,100833.19
2018-04-22T19:30:22.809Z,100832.17
2018-04-22T19:33:26.113Z,100834.20
2018-04-22T19:36:30.205Z,100832.90
2018-04-22T19:39:33.512Z,100827.44
2018-04-22T19:42:36.839Z,100825.51
2018-04-22T19:45:40.171Z,100831.31
2018-04-22T19:48:43.481Z,100823.37
2018-04-22T19:51:46.808Z,100816.85
2018-04-22T19:54:50.901Z,100816.81
2018-04-22T19:57:54.213Z,100808.61
2018-04-22T20:00:57.548Z,100801.27
2018-04-22T20:04:00.850Z,100799.72
2018-04-22T20:07:04.176Z,100794.97
2018-04-22T20:10:07.481Z,100784.67
2018-04-22T20:13:10.825Z,100783.80
2018-04-22T20:16:14.128Z,100784.03
2018-04-22T20:19:17.448Z,100769.27
2018-04-22T20:22:20.798Z,100763.17
2018-04-22T20:25:24.885Z,100760.99
2018-04-22T20:28:28.217Z,100757.59
2018-04-22T20:31:32.313Z,100760.00
2018-04-22T20:34:35.653Z,100751.30
2018-04-22T20:37:38.957Z,100740.69
2018-04-22T20:40:42.277Z,100742.36
2018-04-22T20:43:45.593Z,100740.46
2018-04-22T20:46:48.908Z,100726.95
2018-04-22T20:49:52.978Z,100725.07
2018-04-22T20:52:56.318Z,100727.00
2018-04-22T20:56:00.409Z,100720.25
2018-04-22T20:59:03.733Z,100714.93
2018-04-22T21:02:07.806Z,100706.91
2018-04-22T21:05:11.129Z,100710.27
2018-04-22T21:08:14.457Z,100696.07
2018-04-22T21:11:17.765Z,100691.22
2018-04-22T21:14:21.091Z,100706.73
2018-04-22T21:17:24.417Z,100714.47
2018-04-22T21:20:27.737Z,100715.73
2018-04-22T21:23:31.081Z,100714.48
2018-04-22T21:26:34.393Z,100702.39
2018-04-22T21:29:37.721Z,100707.98
2018-04-22T21:32:41.793Z,100695.59
2018-04-22T21:35:45.133Z,100683.43
2018-04-22T21:38:48.432Z,100673.64
2018-04-22T21:41:52.528Z,100686.16
2018-04-22T21:44:55.848Z,100705.32
2018-04-22T21:47:59.153Z,100731.69
2018-04-22T21:51:02.477Z,100748.35
2018-04-22T21:54:05.785Z,100751.52
2018-04-22T21:57:09.109Z,100753.38
2018-04-22T22:00:13.181Z,100742.82
2018-04-22T22:03:16.508Z,100741.73
2018-04-22T22:06:19.809Z,100740.91
2018-04-22T22:09:23.133Z,100728.03
2018-04-22T22:12:27.221Z,100735.98
2018-04-22T22:15:30.545Z,100725.63
2018-04-22T22:18:34.639Z,100709.56
2018-04-22T22:21:37.973Z,100707.95
2018-04-22T22:24:41.280Z,100702.61
2018-04-22T22:27:44.602Z,100694.87
2018-04-22T22:30:47.933Z,100696.16
2018-04-22T22:33:51.998Z,100691.75
2018-04-22T22:36:55.315Z,100695.88
2018-04-22T22:39:58.648Z,100712.82
2018-04-22T22:43:02.717Z,100725.20
2018-04-22T22:46:06.040Z,100712.60
2018-04-22T22:49:09.364Z,100713.30
2018-04-22T22:52:12.705Z,100708.02
2018-04-22T22:55:16.017Z,100698.66
2018-04-22T22:58:19.345Z,100691.42
2018-04-22T23:01:23.429Z,100697.64
2018-04-22T23:04:26.751Z,100686.89
2018-04-22T23:07:30.821Z,100691.72
2018-04-22T23:10:34.145Z,100687.46
2018-04-22T23:13:37.448Z,100676.32
2018-04-22T23:16:40.774Z,100666.92
2018-04-22T23:19:44.081Z,100663.14
2018-04-22T23:22:47.406Z,100659.05
2018-04-22T23:25:50.729Z,100657.12
2018-04-22T23:28:54.041Z,100657.84
2018-04-22T23:31:58.134Z,100650.28
2018-04-22T23:35:01.441Z,100639.16
2018-04-22T23:38:04.775Z,100645.16
2018-04-22T23:41:08.094Z,100644.28
2018-04-22T23:44:11.416Z,100625.31
2018-04-22T23:47:14.725Z,100619.54
2018-04-22T23:50:18.057Z,100617.45
2018-04-22T23:53:21.386Z,100599.39
2018-04-22T23:56:24.694Z,100604.23
2018-04-22T23:59:28.017Z,100609.11
